< < Back
Terminal Aerodrome Forecast


Current Version              Previous Versions:   1  2  3  4  5  6  7  8  9  

Terminal Aerodrome Forecast

307
FTUS44 KBMX 311100
TAFTCL
TAF
KTCL 311121Z 3112/0112 36004KT P6SM BKN100=



Latest METAR

057
SAUS70 KWBC 312300 RRM
MTRTCL
METAR KTCL 312253Z 01005KT 10SM CLR 27/16 A3003 RMK AO2 SLP166
T02720156


USA.gov is the U.S. government's official web portal to all federal, state and local government web resources and services.